Time;durP1;ratioP1;P1;durP2;ratioP2;P2;SDS_P1;SDS_P2;PMS_P1;PMS_P2;Temp;Humidity;BMP_temperature;BMP_pressure;BME280_temperature;BME280_humidity;BME280_pressure;Samples;Min_cycle;Max_cycle;Signal;HPM_P1;HPM_P2
2022/07/30 00:03:33;;;;;;;4.15;3.22;;;24.90;66.50;;;23.56;55.09;99829.78;10414541;27;98256;-83
2022/07/30 00:08:36;;;;;;;3.80;2.90;;;24.80;66.70;;;23.49;55.37;99838.16;10425004;27;96647;-84
2022/07/30 00:13:39;;;;;;;3.17;2.55;;;24.80;66.90;;;23.37;55.69;99832.09;10427697;27;98276;-83
2022/07/30 00:18:42;;;;;;;3.03;2.72;;;24.70;67.00;;;23.35;55.44;99826.13;10414905;27;97266;-83
2022/07/30 00:23:45;;;;;;;3.35;2.83;;;24.60;67.10;;;23.29;55.62;99829.88;10444351;27;98295;-83
2022/07/30 00:29:04;;;;;;;3.97;3.00;;;24.50;67.30;;;23.22;55.40;99820.09;10422802;27;97450;-83
2022/07/30 00:34:07;;;;;;;5.88;3.03;;;24.40;67.50;;;23.18;55.75;99827.09;10440865;27;97360;-82
2022/07/30 00:39:10;;;;;;;2.80;2.50;;;24.40;67.60;;;23.12;55.73;99830.84;10458813;27;96598;-82
2022/07/30 00:44:13;;;;;;;2.55;2.30;;;24.30;67.90;;;23.03;55.95;99821.56;10458748;27;98154;-82
2022/07/30 00:49:16;;;;;;;4.82;3.15;;;24.20;68.20;;;22.96;56.53;99819.06;10454471;27;98831;-83
2022/07/30 00:54:20;;;;;;;3.60;2.55;;;24.10;68.70;;;22.91;57.41;99813.63;10459040;27;98330;-82
2022/07/30 00:59:26;;;;;;;4.25;2.85;;;24.10;69.10;;;22.85;58.05;99816.50;10448446;27;98441;-82
2022/07/30 01:04:29;;;;;;;3.53;2.88;;;24.10;69.50;;;22.86;57.95;99813.53;10472373;27;96775;-82
2022/07/30 01:09:32;;;;;;;3.20;2.90;;;24.10;69.70;;;22.82;57.92;99808.88;10469267;27;96601;-82
2022/07/30 01:14:36;;;;;;;3.30;2.70;;;24.00;70.00;;;22.71;58.15;99819.63;10458261;27;96889;-83
2022/07/30 01:19:54;;;;;;;3.60;2.95;;;23.80;70.50;;;22.62;58.92;99823.06;10456361;27;96714;-82
2022/07/30 01:25:09;;;;;;;3.35;3.05;;;23.70;71.20;;;22.51;59.14;99829.47;10471978;27;96960;-82
2022/07/30 01:30:19;;;;;;;2.97;2.67;;;23.60;71.80;;;22.39;59.64;99818.78;10468932;27;96580;-82
2022/07/30 01:35:24;;;;;;;5.17;3.47;;;23.50;72.30;;;22.29;60.24;99824.88;10458704;27;98275;-83
2022/07/30 01:40:28;;;;;;;4.47;3.55;;;23.30;72.70;;;22.25;60.17;99814.81;10451943;27;96705;-83
2022/07/30 01:45:33;;;;;;;3.47;3.17;;;23.30;73.00;;;22.27;60.52;99813.50;10468663;27;98042;-83
2022/07/30 01:50:47;;;;;;;4.22;3.47;;;23.30;73.10;;;22.32;60.64;99791.09;10463989;27;99019;-83
2022/07/30 01:55:53;;;;;;;6.32;3.42;;;23.40;73.10;;;22.40;60.78;99779.78;10465485;27;97363;-83
2022/07/30 02:00:57;;;;;;;7.22;3.60;;;23.50;73.00;;;22.46;60.97;99759.81;10460226;27;96699;-83
2022/07/30 02:06:22;;;;;;;5.18;3.80;;;23.60;73.10;;;22.53;60.76;99762.31;10478459;27;97441;-83
2022/07/30 02:16:53;;;;;;;4.63;3.95;;;23.80;72.90;;;22.55;60.98;99763.72;10466892;27;96780;-83
2022/07/30 02:22:11;;;;;;;4.35;3.70;;;23.80;73.00;;;22.57;61.21;99760.75;10460818;27;98037;-83
2022/07/30 02:27:29;;;;;;;4.28;3.80;;;23.80;73.00;;;22.51;61.26;99751.75;10452252;27;96608;-83
2022/07/30 02:32:39;;;;;;;4.88;3.83;;;23.80;73.30;;;22.51;61.45;99746.34;10442615;27;96497;-83
2022/07/30 02:37:47;;;;;;;4.00;3.60;;;23.80;73.60;;;22.52;61.33;99744.44;10406313;27;96582;-83
2022/07/30 02:42:52;;;;;;;5.10;3.95;;;23.80;73.60;;;22.50;61.07;99736.59;10424902;27;96818;-83
2022/07/30 02:48:01;;;;;;;8.60;3.75;;;23.80;73.80;;;22.48;61.59;99751.44;10420542;27;97269;-83
2022/07/30 02:53:09;;;;;;;4.00;3.45;;;23.70;73.90;;;22.40;61.57;99747.31;10404382;27;98298;-83
2022/07/30 02:58:22;;;;;;;4.63;3.85;;;23.70;74.10;;;22.35;62.02;99753.47;10404960;27;96967;-83
2022/07/30 03:03:28;;;;;;;4.95;3.42;;;23.60;74.30;;;22.31;62.22;99738.00;10424996;27;96507;-83
2022/07/30 03:08:33;;;;;;;4.40;3.58;;;23.60;74.50;;;22.27;62.40;99735.00;10421256;27;96961;-83
2022/07/30 03:13:36;;;;;;;4.47;3.72;;;23.50;74.60;;;22.21;62.56;99743.34;10404101;27;97262;-83
2022/07/30 03:18:41;;;;;;;4.22;3.70;;;23.50;74.90;;;22.09;63.32;99740.75;10420301;27;96707;-83
2022/07/30 03:23:46;;;;;;;3.90;3.50;;;23.40;75.30;;;22.05;63.42;99735.00;10415366;27;96634;-84
2022/07/30 03:28:50;;;;;;;5.18;3.65;;;23.40;75.40;;;21.95;63.91;99744.91;10431978;27;96648;-84
2022/07/30 03:33:53;;;;;;;3.90;3.50;;;23.30;76.00;;;21.90;64.33;99740.28;10419059;27;96750;-84
2022/07/30 03:38:56;;;;;;;3.50;3.17;;;23.30;76.30;;;21.80;64.57;99745.56;10421508;27;97650;-84
2022/07/30 03:44:00;;;;;;;3.83;3.38;;;23.10;76.80;;;21.71;64.98;99742.50;10430781;27;96689;-84
2022/07/30 03:49:04;;;;;;;4.45;3.53;;;23.00;77.20;;;21.54;66.23;99736.31;10425931;27;97138;-83
2022/07/30 03:54:10;;;;;;;4.45;3.50;;;22.90;78.40;;;21.53;66.45;99748.19;10410507;27;97526;-82
2022/07/30 03:59:15;;;;;;;4.85;3.22;;;22.90;78.70;;;21.52;66.87;99754.66;10408287;27;96906;-82
2022/07/30 04:04:18;;;;;;;4.28;3.47;;;22.80;79.10;;;21.58;66.69;99753.66;10429300;27;97270;-82
2022/07/30 04:09:22;;;;;;;3.78;3.30;;;22.90;79.30;;;21.58;66.58;99756.38;10418431;27;96820;-83
2022/07/30 04:14:25;;;;;;;7.18;3.33;;;22.90;79.50;;;21.55;67.27;99762.28;10404749;27;97348;-82
2022/07/30 04:19:38;;;;;;;3.85;3.30;;;22.90;79.80;;;21.59;66.93;99780.47;10403132;27;98065;-81
2022/07/30 04:24:44;;;;;;;3.45;3.15;;;22.90;80.00;;;21.58;67.39;99781.50;10424134;27;97086;-83
2022/07/30 04:29:47;;;;;;;5.28;3.30;;;22.90;80.30;;;21.59;67.65;99777.75;10428881;27;96750;-83
2022/07/30 04:34:53;;;;;;;5.57;3.00;;;22.90;80.50;;;21.64;67.43;99768.88;10407258;27;96633;-82
2022/07/30 04:39:59;;;;;;;4.53;3.22;;;22.90;80.60;;;21.68;67.34;99767.31;10424332;27;96550;-85
2022/07/30 04:45:03;;;;;;;3.83;3.42;;;23.00;80.80;;;21.77;67.42;99768.53;10438870;27;98513;-85
2022/07/30 04:50:07;;;;;;;5.13;3.20;;;23.10;81.00;;;21.90;67.21;99765.44;10422346;27;98056;-83
2022/07/30 04:55:13;;;;;;;5.43;3.25;;;23.20;80.90;;;22.01;66.92;99755.56;10416109;27;96680;-85
2022/07/30 05:00:16;;;;;;;3.92;3.50;;;23.30;81.00;;;22.04;67.04;99757.75;10446128;27;96570;-85
2022/07/30 05:05:20;;;;;;;3.85;3.45;;;23.30;81.00;;;22.08;66.87;99758.88;10444967;27;97428;-85
2022/07/30 05:10:23;;;;;;;3.75;3.30;;;23.40;81.10;;;22.11;67.15;99757.56;10442170;27;98077;-85
2022/07/30 05:15:28;;;;;;;3.88;3.42;;;23.40;81.30;;;22.23;67.26;99762.84;10443679;27;96715;-85
2022/07/30 05:20:39;;;;;;;4.07;3.55;;;23.50;81.30;;;22.37;66.36;99753.22;10463658;27;96689;-84
2022/07/30 05:25:42;;;;;;;4.00;3.60;;;23.60;81.20;;;22.53;66.21;99760.44;10448206;27;97102;-84
2022/07/30 05:30:45;;;;;;;3.90;3.50;;;23.80;81.20;;;22.63;65.83;99763.22;10432244;27;96652;-85
2022/07/30 05:35:50;;;;;;;5.28;3.20;;;23.80;80.90;;;22.76;65.74;99769.28;10439300;27;96548;-84
2022/07/30 05:40:52;;;;;;;4.57;3.63;;;23.90;80.80;;;22.91;65.19;99777.56;10448662;27;96608;-84
2022/07/30 05:45:55;;;;;;;5.03;3.58;;;24.10;80.70;;;22.96;64.79;99770.28;10437631;27;96735;-84
2022/07/30 05:50:58;;;;;;;3.78;3.35;;;24.20;80.40;;;22.99;64.32;99770.88;10440345;27;97458;-85
2022/07/30 05:56:01;;;;;;;3.58;3.15;;;24.30;80.10;;;22.99;64.77;99779.81;10429617;27;98299;-84
2022/07/30 06:01:04;;;;;;;3.90;3.20;;;24.30;80.20;;;23.00;64.34;99778.72;10427913;27;98559;-84
2022/07/30 06:06:07;;;;;;;3.92;3.55;;;24.30;79.90;;;23.08;64.35;99782.84;10427794;27;96949;-84
2022/07/30 06:11:10;;;;;;;5.68;3.63;;;24.30;79.90;;;23.15;64.22;99778.84;10444291;27;96642;-84
2022/07/30 06:16:13;;;;;;;3.83;3.42;;;24.40;79.80;;;23.19;63.92;99769.09;10445446;27;98131;-88
2022/07/30 06:21:16;;;;;;;4.78;3.28;;;24.50;79.60;;;23.31;63.49;99771.63;10450911;27;97213;-87
2022/07/30 06:26:19;;;;;;;4.50;3.10;;;24.60;79.50;;;23.42;63.35;99778.72;10435103;27;96638;-86
2022/07/30 06:31:22;;;;;;;5.28;3.20;;;24.70;79.20;;;23.57;63.14;99769.88;10416815;27;96659;-88
2022/07/30 06:36:25;;;;;;;3.65;3.28;;;24.80;79.10;;;23.68;62.77;99771.56;10409462;27;98318;-87
2022/07/30 06:41:28;;;;;;;5.03;3.15;;;25.00;78.70;;;23.73;62.67;99773.50;10396335;27;98758;-89
2022/07/30 06:46:31;;;;;;;4.63;3.08;;;25.00;78.40;;;23.83;61.96;99772.72;10424820;27;97287;-92
2022/07/30 06:51:34;;;;;;;5.13;3.10;;;25.10;78.20;;;23.84;61.57;99771.63;10414944;27;96679;-91
2022/07/30 06:56:37;;;;;;;6.45;3.35;;;25.20;77.80;;;23.87;61.65;99760.25;10414042;27;97279;-88
2022/07/30 07:01:40;;;;;;;3.53;3.08;;;25.20;77.60;;;24.00;61.33;99767.91;10411424;27;97306;-91
2022/07/30 07:06:43;;;;;;;3.50;3.05;;;25.30;77.60;;;24.22;61.01;99760.34;10416946;27;97368;-89
2022/07/30 07:11:46;;;;;;;3.90;3.50;;;25.50;77.60;;;24.37;60.64;99754.19;10399032;28;96531;-89
2022/07/30 07:16:49;;;;;;;5.50;3.30;;;25.60;77.40;;;24.51;60.80;99762.59;10419077;27;96637;-89
2022/07/30 07:21:52;;;;;;;3.53;3.10;;;25.80;77.50;;;24.67;60.04;99761.53;10435414;27;96666;-88
2022/07/30 07:26:55;;;;;;;4.05;3.30;;;25.90;77.00;;;24.69;59.71;99745.75;10442226;27;96912;-89
2022/07/30 07:31:58;;;;;;;3.30;2.83;;;26.00;76.70;;;24.67;59.67;99742.50;10416536;27;97560;-87
2022/07/30 07:37:09;;;;;;;4.65;3.00;;;26.00;76.60;;;24.70;60.39;99728.38;10418757;27;96457;-90
2022/07/30 07:42:12;;;;;;;4.07;3.67;;;26.00;77.00;;;24.70;60.31;99716.69;10437241;27;96810;-89
2022/07/30 07:47:15;;;;;;;4.55;3.20;;;26.00;77.10;;;24.88;60.75;99723.47;10406727;28;96512;-88
2022/07/30 07:52:18;;;;;;;5.28;3.35;;;26.10;77.30;;;24.92;59.95;99721.84;10402095;28;97295;-89
2022/07/30 07:57:21;;;;;;;3.55;3.25;;;26.30;77.00;;;24.92;60.22;99743.59;10420050;27;96564;-88
2022/07/30 08:02:25;;;;;;;3.05;2.75;;;26.30;76.90;;;24.95;60.17;99762.91;10441266;27;96521;-87
2022/07/30 08:07:29;;;;;;;4.90;3.53;;;26.30;76.70;;;24.75;60.97;99785.44;10428319;27;97275;-87
2022/07/30 08:12:33;;;;;;;8.68;4.63;;;26.10;77.80;;;24.52;62.83;99775.09;10406099;28;97570;-88
2022/07/30 08:17:46;;;;;;;5.13;4.22;;;25.80;79.80;;;24.21;65.82;99783.16;10398771;28;96638;-88
2022/07/30 08:22:49;;;;;;;7.85;4.40;;;25.60;81.40;;;23.84;68.34;99775.16;10425674;27;97008;-88
2022/07/30 08:27:52;;;;;;;6.35;4.45;;;25.30;83.20;;;23.52;69.72;99779.88;10404650;28;97264;-91
2022/07/30 08:32:57;;;;;;;6.35;4.78;;;25.00;84.90;;;23.32;71.11;99794.94;10408272;27;96582;-88
2022/07/30 08:38:00;;;;;;;5.82;3.80;;;24.70;86.90;;;23.21;72.37;99802.19;10382314;28;96577;-88
2022/07/30 08:43:06;;;;;;;5.00;4.50;;;24.60;88.60;;;23.14;73.04;99801.59;10421786;27;97483;-87
2022/07/30 08:48:11;;;;;;;8.48;4.72;;;24.50;89.50;;;23.10;73.62;99815.94;10422757;27;96646;-87
2022/07/30 08:53:18;;;;;;;6.75;5.13;;;24.40;90.40;;;23.06;73.42;99817.53;10429881;27;96774;-88
2022/07/30 08:58:33;;;;;;;5.85;4.50;;;24.30;91.10;;;22.97;74.30;99806.34;10402029;28;96664;-89
2022/07/30 09:03:39;;;;;;;6.47;5.13;;;24.20;92.10;;;22.97;75.41;99798.22;10382013;28;96550;-90
2022/07/30 09:08:46;;;;;;;;;;;24.10;93.00;;;22.99;74.29;99797.97;10384275;27;97030;-90
2022/07/30 09:13:49;;;;;;;7.55;4.88;;;24.20;93.10;;;22.96;74.31;99796.56;10439743;27;96488;-91
2022/07/30 09:18:53;;;;;;;5.68;5.00;;;24.20;93.80;;;23.04;74.61;99798.00;10421503;27;96691;-89
2022/07/30 09:24:04;;;;;;;7.68;4.88;;;24.30;94.70;;;23.12;74.79;99797.50;10423121;27;96677;-89
2022/07/30 09:29:20;;;;;;;6.53;5.07;;;24.30;95.30;;;23.09;74.54;99801.56;10397080;28;96691;-89
2022/07/30 09:34:27;;;;;;;6.28;4.97;;;24.40;95.30;;;23.13;74.60;99812.69;10426213;27;96647;-89
2022/07/30 09:39:41;;;;;;;5.32;3.67;;;24.50;95.80;;;23.05;74.08;99811.28;10438987;27;96530;-90
2022/07/30 09:45:14;;;;;;;9.65;5.97;;;24.40;95.50;;;22.90;73.88;99816.56;10438144;27;97415;-89
2022/07/30 09:50:19;;;;;;;8.27;7.35;;;24.20;95.90;;;22.69;74.43;99813.66;10404110;27;96492;-90
2022/07/30 09:55:34;;;;;;;8.10;7.30;;;23.90;96.60;;;22.43;75.08;99814.47;10414874;27;97289;-91
2022/07/30 10:00:44;;;;;;;8.50;7.60;;;23.60;97.70;;;22.17;75.84;99821.50;10417409;27;98272;-93
2022/07/30 10:05:59;;;;;;;9.48;8.02;;;23.40;98.70;;;21.84;76.77;99822.44;10423329;27;96996;-93
2022/07/30 10:11:02;;;;;;;9.90;8.85;;;23.00;99.90;;;21.50;78.25;99849.53;10423988;27;98380;-87
2022/07/30 10:16:10;;;;;;;10.45;8.30;;;22.60;99.90;;;21.11;79.72;99849.47;10405073;27;96818;-91
2022/07/30 10:21:14;;;;;;;12.43;9.07;;;22.30;99.90;;;20.57;81.52;99838.25;10404323;27;98381;-91
2022/07/30 10:26:19;;;;;;;10.38;8.77;;;21.90;99.90;;;20.15;84.10;99836.84;10422895;27;96730;-92
2022/07/30 10:31:25;;;;;;;10.93;9.50;;;21.40;99.90;;;19.88;86.83;99815.00;10433422;27;96666;-93
2022/07/30 10:37:00;;;;;;;10.95;8.77;;;21.10;99.90;;;19.74;88.81;99825.22;10406930;27;96570;-91
2022/07/30 10:42:45;;;;;;;8.20;7.27;;;20.90;99.90;;;19.64;90.33;99842.00;10421865;27;98614;-92
2022/07/30 10:47:51;;;;;;;8.33;7.53;;;20.80;99.90;;;19.55;91.40;99835.28;10418337;27;98234;-92
2022/07/30 10:53:00;;;;;;;8.15;6.47;;;20.70;99.90;;;19.51;92.46;99826.84;10395588;27;98564;-89
2022/07/30 10:58:12;;;;;;;8.48;7.57;;;20.70;99.90;;;19.47;93.64;99825.69;10420541;27;96662;-86
2022/07/30 11:03:30;;;;;;;10.95;8.00;;;20.70;99.90;;;19.55;94.62;99827.19;10440913;27;98072;-90
2022/07/30 11:08:49;;;;;;;8.10;7.17;;;20.80;99.90;;;19.61;95.67;99822.75;10412709;27;101298;-90
2022/07/30 11:13:57;;;;;;;11.00;7.70;;;20.90;99.90;;;19.70;96.41;99802.50;10418704;27;97304;-89
2022/07/30 11:19:16;;;;;;;8.38;6.72;;;20.90;99.90;;;19.80;97.33;99797.31;10419184;27;97101;-88
2022/07/30 11:24:46;;;;;;;8.45;6.47;;;21.00;99.90;;;19.89;98.13;99787.78;10419095;27;97516;-88
2022/07/30 11:29:50;;;;;;;7.78;6.93;;;21.10;99.90;;;20.02;98.69;99782.13;10416528;27;96571;-88
2022/07/30 11:35:19;;;;;;;8.23;7.18;;;21.20;99.90;;;20.27;99.74;99771.03;10464556;27;98076;-89
2022/07/30 11:40:34;;;;;;;6.65;6.05;;;21.40;99.90;;;20.51;100.00;99746.63;10454140;27;96581;-87
2022/07/30 11:45:37;;;;;;;6.65;5.95;;;21.60;99.90;;;20.71;100.00;99749.66;10477976;27;96619;-87
2022/07/30 11:50:44;;;;;;;5.43;4.93;;;21.80;99.90;;;20.85;100.00;99734.75;10488783;27;96654;-88
2022/07/30 11:56:00;;;;;;;4.13;3.72;;;22.00;99.90;;;20.99;100.00;99743.38;10483901;27;96861;-88
2022/07/30 12:01:16;;;;;;;4.18;3.78;;;22.20;99.90;;;21.11;100.00;99743.25;10442487;27;96768;-86
2022/07/30 12:06:19;;;;;;;4.88;4.20;;;22.30;99.90;;;21.22;100.00;99728.00;10472107;27;98267;-86
2022/07/30 12:11:22;;;;;;;5.40;4.10;;;22.50;99.90;;;21.38;100.00;99721.78;10461874;27;96823;-85
2022/07/30 12:16:26;;;;;;;5.63;3.83;;;22.60;99.90;;;21.50;100.00;99705.44;10488414;27;96602;-86
2022/07/30 12:21:30;;;;;;;4.47;4.07;;;22.70;99.90;;;21.45;100.00;99689.97;10446658;27;97216;-88
2022/07/30 12:26:33;;;;;;;4.47;4.00;;;22.70;99.90;;;21.44;100.00;99691.06;10456832;27;96569;-89
2022/07/30 12:31:38;;;;;;;9.60;4.25;;;22.70;99.90;;;21.43;99.37;99696.72;10425255;27;96577;-88
2022/07/30 12:36:41;;;;;;;5.40;4.90;;;22.80;99.90;;;21.42;99.41;99700.50;10427441;27;96673;-88
2022/07/30 12:41:48;;;;;;;4.80;4.13;;;22.70;99.90;;;21.54;100.00;99699.28;10428241;27;97097;-87
2022/07/30 12:46:51;;;;;;;2.92;2.70;;;22.90;99.90;;;21.62;99.67;99690.72;10429247;27;96563;-87
2022/07/30 12:51:54;;;;;;;2.97;2.78;;;22.90;99.90;;;21.55;99.24;99700.09;10406637;27;97319;-86
2022/07/30 12:57:04;;;;;;;2.30;2.10;;;22.80;99.90;;;21.44;98.55;99696.47;10408304;27;96849;-85
2022/07/30 13:02:08;;;;;;;3.08;2.40;;;22.70;99.90;;;21.34;97.12;99688.22;10413719;27;97218;-85
2022/07/30 13:07:11;;;;;;;3.88;1.55;;;22.60;99.90;;;21.33;96.28;99692.78;10410728;27;96555;-85
2022/07/30 13:12:15;;;;;;;1.58;1.13;;;22.50;99.90;;;21.18;93.43;99703.38;10417852;27;96644;-85
2022/07/30 13:17:18;;;;;;;1.50;1.30;;;22.40;99.90;;;21.02;92.20;99712.34;10425662;27;96619;-85
2022/07/30 13:22:21;;;;;;;1.15;1.05;;;22.30;99.90;;;21.04;92.90;99711.00;10438834;27;97334;-84
2022/07/30 13:27:24;;;;;;;0.80;0.80;;;22.30;99.90;;;21.13;92.84;99711.41;10414894;27;96643;-84
2022/07/30 13:32:27;;;;;;;1.17;1.00;;;22.40;99.90;;;21.20;91.28;99714.75;10410413;27;96587;-85
2022/07/30 13:37:30;;;;;;;1.63;1.20;;;22.50;99.90;;;21.17;89.49;99687.41;10407414;27;96701;-84
2022/07/30 13:42:40;;;;;;;1.50;1.20;;;22.50;99.90;;;21.06;87.58;99664.84;10444864;27;98336;-84
2022/07/30 13:47:43;;;;;;;1.30;1.00;;;22.30;99.90;;;21.02;88.28;99663.72;10432021;27;96669;-83
2022/07/30 13:52:46;;;;;;;1.30;1.02;;;22.30;99.90;;;21.07;89.10;99671.88;10423324;27;96927;-83
2022/07/30 13:57:49;;;;;;;1.08;0.90;;;22.30;99.90;;;21.06;87.79;99678.38;10420218;27;96559;-82
2022/07/30 14:02:53;;;;;;;1.00;0.77;;;22.30;99.90;;;21.07;88.10;99683.50;10408720;27;96898;-84
2022/07/30 14:07:56;;;;;;;0.80;0.70;;;22.30;99.90;;;21.06;87.95;99692.69;10429849;27;96882;-86
2022/07/30 14:13:00;;;;;;;0.43;0.43;;;22.30;99.90;;;21.03;86.04;99709.38;10418793;27;98307;-87
2022/07/30 14:18:03;;;;;;;0.50;0.32;;;22.30;99.90;;;20.97;84.08;99720.34;10416290;27;97030;-86
2022/07/30 14:23:06;;;;;;;0.40;0.40;;;22.30;99.90;;;21.09;85.85;99719.19;10425604;27;96629;-88
2022/07/30 14:28:09;;;;;;;1.67;0.40;;;22.40;99.90;;;21.33;84.62;99735.22;10440236;27;97034;-88
2022/07/30 14:33:12;;;;;;;0.60;0.60;;;22.60;99.90;;;21.58;84.46;99726.63;10420825;27;97363;-86
2022/07/30 14:38:15;;;;;;;0.50;0.50;;;22.80;99.90;;;21.89;82.08;99734.06;10411065;27;96665;-85
2022/07/30 14:43:18;;;;;;;1.48;0.80;;;23.20;99.90;;;21.84;80.36;99711.53;10414218;27;96577;-85
2022/07/30 14:48:21;;;;;;;0.98;0.60;;;23.20;99.90;;;21.98;80.84;99718.16;10446997;27;97445;-86
2022/07/30 14:53:24;;;;;;;1.00;0.85;;;23.30;99.90;;;22.11;78.77;99703.44;10423607;27;98010;-85
2022/07/30 14:58:27;;;;;;;1.23;1.10;;;23.40;99.90;;;22.16;77.61;99695.38;10412284;27;96593;-84
2022/07/30 15:03:29;;;;;;;1.25;0.95;;;23.50;99.90;;;22.20;76.92;99691.09;10423826;27;96705;-84
2022/07/30 15:08:32;;;;;;;1.20;0.80;;;23.50;99.90;;;22.27;76.75;99690.91;10423798;27;96690;-85
2022/07/30 15:13:36;;;;;;;1.10;1.00;;;23.60;99.90;;;22.33;74.83;99689.88;10420265;27;98289;-84
2022/07/30 15:18:51;;;;;;;1.20;1.00;;;23.70;99.90;;;22.56;75.13;99694.13;10430662;27;97874;-81
2022/07/30 15:23:54;;;;;;;1.00;0.90;;;23.90;99.90;;;22.56;72.93;99689.53;10436370;27;96926;-82
2022/07/30 15:28:57;;;;;;;0.70;0.70;;;23.90;99.90;;;22.39;74.28;99695.06;10407020;27;96936;-83
2022/07/30 15:34:00;;;;;;;1.10;0.60;;;23.80;99.90;;;22.34;74.20;99692.31;10453587;27;96621;-84
2022/07/30 15:39:02;;;;;;;1.20;0.90;;;23.70;99.90;;;22.42;73.77;99699.94;10430799;27;97583;-83
2022/07/30 15:44:05;;;;;;;0.80;0.80;;;23.70;99.90;;;22.53;73.47;99700.84;10416537;27;98551;-84
2022/07/30 15:49:08;;;;;;;0.95;0.80;;;23.80;99.90;;;22.57;72.76;99701.97;10435151;27;96897;-83
2022/07/30 15:54:12;;;;;;;0.95;0.90;;;23.90;99.90;;;22.51;72.98;99697.59;10418858;27;96660;-83
2022/07/30 15:59:16;;;;;;;1.10;0.73;;;23.80;99.90;;;22.69;72.92;99713.44;10442063;27;98124;-83
2022/07/30 16:04:18;;;;;;;1.77;0.77;;;23.90;99.90;;;22.87;72.24;99712.25;10416239;27;97387;-84
2022/07/30 16:09:22;;;;;;;1.25;1.00;;;24.10;99.90;;;22.92;72.51;99719.63;10427273;27;97546;-83
2022/07/30 16:14:26;;;;;;;1.02;0.85;;;24.20;99.90;;;22.76;72.39;99723.25;10441193;27;97268;-83
2022/07/30 16:19:29;;;;;;;0.82;0.80;;;24.10;99.90;;;22.74;72.80;99726.22;10413724;27;97325;-83
2022/07/30 16:24:32;;;;;;;1.30;1.17;;;24.00;99.90;;;23.07;74.00;99718.88;10418441;27;96565;-84
2022/07/30 16:29:35;;;;;;;1.10;1.00;;;24.30;99.90;;;23.39;71.92;99724.19;10411129;27;98468;-83
2022/07/30 16:34:38;;;;;;;0.98;0.80;;;24.60;99.90;;;23.57;68.53;99720.22;10435739;27;97210;-83
2022/07/30 16:39:41;;;;;;;1.40;0.70;;;24.80;99.90;;;23.80;69.17;99730.66;10407332;27;96604;-84
2022/07/30 16:44:44;;;;;;;1.95;0.77;;;25.10;99.90;;;23.84;67.61;99725.53;10425738;27;97213;-84
2022/07/30 16:49:46;;;;;;;0.95;0.85;;;25.10;99.60;;;23.47;67.00;99716.41;10442388;27;96500;-84
2022/07/30 16:54:49;;;;;;;1.50;1.00;;;24.80;98.90;;;23.17;67.32;99724.38;10404137;27;97322;-85
2022/07/30 16:59:52;;;;;;;1.00;0.70;;;24.50;99.00;;;22.84;66.36;99730.88;10403404;28;96545;-85
2022/07/30 17:04:55;;;;;;;1.17;0.98;;;24.20;98.30;;;22.54;67.67;99737.69;10426117;27;96737;-84
2022/07/30 17:09:58;;;;;;;1.50;0.90;;;23.90;98.90;;;22.30;69.05;99736.38;10459033;27;96616;-84
2022/07/30 17:15:01;;;;;;;2.45;1.10;;;23.60;98.90;;;22.14;69.82;99747.06;10443654;27;96852;-85
2022/07/30 17:20:05;;;;;;;3.45;1.30;;;23.50;99.30;;;22.04;71.63;99749.63;10459316;27;98433;-84
2022/07/30 17:25:09;;;;;;;1.58;1.10;;;23.40;99.60;;;21.99;72.83;99749.56;10416860;27;96662;-84
2022/07/30 17:30:12;;;;;;;0.60;0.60;;;23.30;99.90;;;21.95;74.86;99740.34;10412207;27;96862;-85
2022/07/30 17:35:15;;;;;;;1.05;0.90;;;23.30;99.90;;;21.90;74.59;99721.34;10413577;27;97093;-84
2022/07/30 17:40:18;;;;;;;1.67;1.17;;;23.30;99.90;;;21.88;76.92;99726.16;10427160;27;96509;-85
2022/07/30 17:45:35;;;;;;;2.00;1.40;;;23.20;99.90;;;21.79;76.26;99712.28;10421903;27;98236;-84
2022/07/30 17:50:38;;;;;;;3.03;1.00;;;23.20;99.90;;;21.73;76.41;99701.66;10416882;27;97276;-81
2022/07/30 17:55:41;;;;;;;2.53;1.48;;;23.10;99.90;;;21.66;76.41;99695.66;10438779;27;97598;-85
2022/07/30 18:01:01;;;;;;;1.48;1.35;;;23.00;99.90;;;21.59;76.63;99693.94;10425766;27;96552;-85
2022/07/30 18:06:04;;;;;;;1.33;1.23;;;22.90;99.90;;;21.55;76.40;99694.69;10457065;27;97310;-85
2022/07/30 18:11:07;;;;;;;1.60;1.48;;;22.90;99.90;;;21.49;76.00;99693.81;10448844;27;96484;-84
2022/07/30 18:16:15;;;;;;;2.03;1.63;;;22.80;99.90;;;21.46;77.13;99691.59;10436860;27;96738;-84
2022/07/30 18:21:18;;;;;;;1.73;1.63;;;22.80;99.90;;;21.42;76.39;99687.78;10418673;27;98190;-85
2022/07/30 18:26:21;;;;;;;2.63;2.08;;;22.80;99.90;;;21.40;76.59;99691.78;10423846;27;96765;-86
2022/07/30 18:31:24;;;;;;;2.17;1.63;;;22.70;99.90;;;21.34;76.50;99699.00;10433627;27;96778;-84
2022/07/30 18:36:27;;;;;;;2.55;1.70;;;22.70;99.90;;;21.31;77.23;99692.25;10442750;27;96637;-87
2022/07/30 18:41:30;;;;;;;3.85;1.90;;;22.60;99.90;;;21.28;77.12;99698.09;10417689;27;96740;-82
2022/07/30 18:46:33;;;;;;;2.35;1.70;;;22.60;99.90;;;21.25;77.16;99695.09;10439287;27;97352;-83
2022/07/30 18:51:37;;;;;;;3.20;1.80;;;22.60;99.90;;;21.13;74.75;99700.63;10428017;27;96522;-83
2022/07/30 18:56:39;;;;;;;2.25;1.90;;;22.50;99.90;;;21.05;74.85;99706.41;10446060;27;97430;-82
2022/07/30 19:01:42;;;;;;;2.33;2.13;;;22.40;99.90;;;20.99;73.52;99713.66;10440225;27;96711;-81
2022/07/30 19:06:46;;;;;;;2.53;2.10;;;22.30;99.90;;;20.94;73.64;99729.78;10430031;27;96570;-82
2022/07/30 19:11:49;;;;;;;2.65;2.22;;;22.20;99.90;;;20.92;74.31;99739.19;10441677;27;98056;-81
2022/07/30 19:16:52;;;;;;;2.55;2.28;;;22.20;99.90;;;20.88;74.17;99749.69;10429027;27;98466;-81
2022/07/30 19:22:00;;;;;;;2.70;2.40;;;22.20;99.90;;;20.85;73.67;99755.56;10432975;27;96647;-82
2022/07/30 19:27:05;;;;;;;3.22;2.38;;;22.20;99.90;;;20.81;73.50;99754.41;10416984;27;97234;-83
2022/07/30 19:32:13;;;;;;;3.00;2.60;;;22.10;99.90;;;20.79;73.38;99764.63;10426435;27;96989;-84
2022/07/30 19:37:18;;;;;;;2.53;2.33;;;22.10;99.90;;;20.75;75.00;99775.13;10425405;27;97174;-83
2022/07/30 19:42:21;;;;;;;2.67;2.30;;;22.10;99.90;;;20.72;75.63;99767.50;10433097;27;99123;-84
2022/07/30 19:47:25;;;;;;;7.43;2.88;;;22.10;99.90;;;20.70;75.02;99771.53;10414810;27;97645;-83
2022/07/30 19:52:27;;;;;;;2.78;2.30;;;22.10;99.90;;;20.64;75.06;99767.09;10417816;27;97284;-84
2022/07/30 19:57:31;;;;;;;3.75;2.80;;;22.00;99.90;;;20.60;73.93;99765.94;10417005;27;96485;-83
2022/07/30 20:02:54;;;;;;;3.20;2.90;;;22.00;99.90;;;20.53;73.64;99763.41;10430074;27;97320;-83
2022/07/30 20:07:59;;;;;;;3.35;3.05;;;21.90;99.90;;;20.48;73.52;99761.44;10457804;27;96560;-84
2022/07/30 20:13:02;;;;;;;3.25;2.95;;;21.80;99.90;;;20.45;74.35;99767.31;10436419;27;96783;-85
2022/07/30 20:18:08;;;;;;;3.22;2.92;;;21.80;99.90;;;20.43;75.12;99771.28;10433935;27;97963;-85
2022/07/30 20:23:11;;;;;;;3.97;3.00;;;21.70;99.90;;;20.38;74.56;99760.38;10456038;27;96577;-84
2022/07/30 20:28:14;;;;;;;3.20;2.85;;;21.70;99.90;;;20.35;75.20;99759.00;10424281;27;98081;-84
2022/07/30 20:33:20;;;;;;;3.55;3.25;;;21.70;99.90;;;20.29;74.67;99754.59;10416788;27;96927;-84
2022/07/30 20:38:37;;;;;;;3.97;3.33;;;21.60;99.90;;;20.20;74.81;99751.44;10430605;27;97382;-84
2022/07/30 20:43:42;;;;;;;3.58;3.28;;;21.50;99.90;;;20.16;75.42;99746.78;10417238;27;97933;-85
2022/07/30 20:48:54;;;;;;;4.05;3.30;;;21.50;99.90;;;20.13;76.22;99749.94;10423763;27;98381;-85
2022/07/30 20:53:57;;;;;;;3.40;3.10;;;21.40;99.90;;;20.05;76.37;99751.16;10417769;27;97643;-85
2022/07/30 20:59:01;;;;;;;5.10;3.95;;;21.40;99.90;;;20.00;77.13;99759.16;10433579;27;96539;-84
2022/07/30 21:04:04;;;;;;;3.70;3.40;;;21.40;99.90;;;19.95;77.12;99756.34;10407042;27;96684;-86
2022/07/30 21:09:12;;;;;;;4.20;3.80;;;21.30;99.90;;;19.88;77.50;99751.09;10399664;27;96715;-85
2022/07/30 21:14:15;;;;;;;4.72;3.90;;;21.20;99.90;;;19.83;78.02;99748.31;10398503;27;96648;-85
2022/07/30 21:19:20;;;;;;;5.00;3.90;;;21.20;99.90;;;19.80;78.43;99750.69;10424566;27;96633;-85